sensor_id;sensor_type;location;lat;lon;timestamp;P1;durP1;ratioP1;P2;durP2;ratioP2
4674;SDS011;2351;50.812;12.872;2023-05-07T00:02:15;19.03;;;10.30;;
4674;SDS011;2351;50.812;12.872;2023-05-07T00:04:47;20.93;;;9.30;;
4674;SDS011;2351;50.812;12.872;2023-05-07T00:07:19;22.70;;;9.40;;
4674;SDS011;2351;50.812;12.872;2023-05-07T00:09:50;18.67;;;9.30;;
4674;SDS011;2351;50.812;12.872;2023-05-07T00:12:22;17.23;;;8.90;;
4674;SDS011;2351;50.812;12.872;2023-05-07T00:14:54;19.10;;;9.00;;
4674;SDS011;2351;50.812;12.872;2023-05-07T00:17:27;15.17;;;8.20;;
4674;SDS011;2351;50.812;12.872;2023-05-07T00:19:58;16.40;;;9.17;;
4674;SDS011;2351;50.812;12.872;2023-05-07T00:22:30;11.43;;;6.70;;
4674;SDS011;2351;50.812;12.872;2023-05-07T00:25:02;15.23;;;7.77;;
4674;SDS011;2351;50.812;12.872;2023-05-07T00:27:35;18.00;;;8.43;;
4674;SDS011;2351;50.812;12.872;2023-05-07T00:30:07;16.00;;;7.67;;
4674;SDS011;2351;50.812;12.872;2023-05-07T00:32:41;19.03;;;8.43;;
4674;SDS011;2351;50.812;12.872;2023-05-07T00:35:15;15.30;;;7.10;;
4674;SDS011;2351;50.812;12.872;2023-05-07T00:37:47;16.20;;;7.03;;
4674;SDS011;2351;50.812;12.872;2023-05-07T00:40:19;11.90;;;7.23;;
4674;SDS011;2351;50.812;12.872;2023-05-07T00:42:51;14.47;;;6.60;;
4674;SDS011;2351;50.812;12.872;2023-05-07T00:45:27;15.77;;;7.20;;
4674;SDS011;2351;50.812;12.872;2023-05-07T00:48:00;13.37;;;6.70;;
4674;SDS011;2351;50.812;12.872;2023-05-07T00:50:33;10.53;;;6.30;;
4674;SDS011;2351;50.812;12.872;2023-05-07T00:53:05;18.80;;;5.50;;
4674;SDS011;2351;50.812;12.872;2023-05-07T00:55:38;12.57;;;6.27;;
4674;SDS011;2351;50.812;12.872;2023-05-07T00:58:10;10.23;;;6.17;;
4674;SDS011;2351;50.812;12.872;2023-05-07T01:00:42;12.33;;;7.00;;
4674;SDS011;2351;50.812;12.872;2023-05-07T01:03:15;11.43;;;6.53;;
4674;SDS011;2351;50.812;12.872;2023-05-07T01:05:47;9.33;;;5.87;;
4674;SDS011;2351;50.812;12.872;2023-05-07T01:08:20;11.20;;;6.20;;
4674;SDS011;2351;50.812;12.872;2023-05-07T01:10:55;9.90;;;5.97;;
4674;SDS011;2351;50.812;12.872;2023-05-07T01:13:28;10.27;;;5.63;;
4674;SDS011;2351;50.812;12.872;2023-05-07T01:16:00;9.10;;;6.23;;
4674;SDS011;2351;50.812;12.872;2023-05-07T01:18:33;12.30;;;6.20;;
4674;SDS011;2351;50.812;12.872;2023-05-07T01:21:05;14.87;;;7.50;;
4674;SDS011;2351;50.812;12.872;2023-05-07T01:23:43;11.30;;;6.77;;
4674;SDS011;2351;50.812;12.872;2023-05-07T01:26:16;14.57;;;7.67;;
4674;SDS011;2351;50.812;12.872;2023-05-07T01:28:49;13.73;;;7.10;;
4674;SDS011;2351;50.812;12.872;2023-05-07T01:31:21;12.47;;;7.47;;
4674;SDS011;2351;50.812;12.872;2023-05-07T01:33:55;14.23;;;7.70;;
4674;SDS011;2351;50.812;12.872;2023-05-07T01:36:30;14.87;;;8.13;;
4674;SDS011;2351;50.812;12.872;2023-05-07T01:39:05;13.70;;;7.53;;
4674;SDS011;2351;50.812;12.872;2023-05-07T01:41:37;17.07;;;8.07;;
4674;SDS011;2351;50.812;12.872;2023-05-07T01:44:09;13.17;;;8.50;;
4674;SDS011;2351;50.812;12.872;2023-05-07T01:46:43;13.30;;;8.80;;
4674;SDS011;2351;50.812;12.872;2023-05-07T01:49:16;14.10;;;8.87;;
4674;SDS011;2351;50.812;12.872;2023-05-07T01:51:48;14.63;;;8.13;;
4674;SDS011;2351;50.812;12.872;2023-05-07T01:54:26;16.87;;;8.80;;
4674;SDS011;2351;50.812;12.872;2023-05-07T01:56:58;22.73;;;9.50;;
4674;SDS011;2351;50.812;12.872;2023-05-07T01:59:44;15.17;;;8.20;;
4674;SDS011;2351;50.812;12.872;2023-05-07T02:02:16;19.87;;;10.27;;
4674;SDS011;2351;50.812;12.872;2023-05-07T02:04:47;19.57;;;9.03;;
4674;SDS011;2351;50.812;12.872;2023-05-07T02:07:19;20.13;;;8.83;;
4674;SDS011;2351;50.812;12.872;2023-05-07T02:09:52;19.07;;;9.70;;
4674;SDS011;2351;50.812;12.872;2023-05-07T02:12:25;19.77;;;10.17;;
4674;SDS011;2351;50.812;12.872;2023-05-07T02:14:57;21.80;;;9.53;;
4674;SDS011;2351;50.812;12.872;2023-05-07T02:17:28;18.63;;;9.30;;
4674;SDS011;2351;50.812;12.872;2023-05-07T02:20:01;26.53;;;11.17;;
4674;SDS011;2351;50.812;12.872;2023-05-07T02:22:34;19.93;;;9.83;;
4674;SDS011;2351;50.812;12.872;2023-05-07T02:25:07;22.70;;;10.40;;
4674;SDS011;2351;50.812;12.872;2023-05-07T02:27:39;19.57;;;10.13;;
4674;SDS011;2351;50.812;12.872;2023-05-07T02:30:11;15.07;;;9.17;;
4674;SDS011;2351;50.812;12.872;2023-05-07T02:32:43;23.60;;;12.07;;
4674;SDS011;2351;50.812;12.872;2023-05-07T02:35:15;22.83;;;11.50;;
4674;SDS011;2351;50.812;12.872;2023-05-07T02:37:47;24.90;;;10.57;;
4674;SDS011;2351;50.812;12.872;2023-05-07T02:40:20;24.20;;;11.60;;
4674;SDS011;2351;50.812;12.872;2023-05-07T02:42:52;24.73;;;10.87;;
4674;SDS011;2351;50.812;12.872;2023-05-07T02:45:23;27.80;;;12.00;;
4674;SDS011;2351;50.812;12.872;2023-05-07T02:47:55;26.30;;;13.07;;
4674;SDS011;2351;50.812;12.872;2023-05-07T02:50:27;22.73;;;11.83;;
4674;SDS011;2351;50.812;12.872;2023-05-07T02:52:59;26.30;;;12.63;;
4674;SDS011;2351;50.812;12.872;2023-05-07T02:55:32;28.73;;;11.13;;
4674;SDS011;2351;50.812;12.872;2023-05-07T02:58:04;24.83;;;12.83;;
4674;SDS011;2351;50.812;12.872;2023-05-07T03:00:36;24.10;;;13.43;;
4674;SDS011;2351;50.812;12.872;2023-05-07T03:03:07;24.40;;;12.87;;
4674;SDS011;2351;50.812;12.872;2023-05-07T03:05:39;24.47;;;11.90;;
4674;SDS011;2351;50.812;12.872;2023-05-07T03:08:11;23.70;;;12.30;;
4674;SDS011;2351;50.812;12.872;2023-05-07T03:10:44;25.37;;;12.37;;
4674;SDS011;2351;50.812;12.872;2023-05-07T03:13:16;25.37;;;12.40;;
4674;SDS011;2351;50.812;12.872;2023-05-07T03:15:48;29.87;;;12.53;;
4674;SDS011;2351;50.812;12.872;2023-05-07T03:18:20;30.83;;;13.17;;
4674;SDS011;2351;50.812;12.872;2023-05-07T03:20:51;26.80;;;12.63;;
4674;SDS011;2351;50.812;12.872;2023-05-07T03:23:23;22.23;;;11.37;;
4674;SDS011;2351;50.812;12.872;2023-05-07T03:25:56;28.13;;;13.83;;
4674;SDS011;2351;50.812;12.872;2023-05-07T03:28:28;29.77;;;13.50;;
4674;SDS011;2351;50.812;12.872;2023-05-07T03:31:00;32.70;;;13.47;;
4674;SDS011;2351;50.812;12.872;2023-05-07T03:33:32;27.57;;;13.50;;
4674;SDS011;2351;50.812;12.872;2023-05-07T03:36:05;34.63;;;14.00;;
4674;SDS011;2351;50.812;12.872;2023-05-07T03:38:37;29.97;;;14.33;;
4674;SDS011;2351;50.812;12.872;2023-05-07T03:41:10;28.67;;;12.70;;
4674;SDS011;2351;50.812;12.872;2023-05-07T03:43:41;26.53;;;13.70;;
4674;SDS011;2351;50.812;12.872;2023-05-07T03:46:13;27.77;;;13.50;;
4674;SDS011;2351;50.812;12.872;2023-05-07T03:48:45;31.53;;;13.33;;
4674;SDS011;2351;50.812;12.872;2023-05-07T03:51:16;27.07;;;12.80;;
4674;SDS011;2351;50.812;12.872;2023-05-07T03:53:48;30.17;;;13.03;;
4674;SDS011;2351;50.812;12.872;2023-05-07T03:56:24;32.70;;;13.53;;
4674;SDS011;2351;50.812;12.872;2023-05-07T03:58:56;28.57;;;12.50;;
4674;SDS011;2351;50.812;12.872;2023-05-07T04:01:28;24.37;;;11.73;;
4674;SDS011;2351;50.812;12.872;2023-05-07T04:03:59;25.73;;;12.73;;
4674;SDS011;2351;50.812;12.872;2023-05-07T04:06:31;25.53;;;12.30;;
4674;SDS011;2351;50.812;12.872;2023-05-07T04:09:03;24.77;;;12.57;;
4674;SDS011;2351;50.812;12.872;2023-05-07T04:11:36;26.37;;;13.30;;
4674;SDS011;2351;50.812;12.872;2023-05-07T04:14:10;30.23;;;12.60;;
4674;SDS011;2351;50.812;12.872;2023-05-07T04:16:41;26.20;;;12.30;;
4674;SDS011;2351;50.812;12.872;2023-05-07T04:19:13;24.83;;;11.80;;
4674;SDS011;2351;50.812;12.872;2023-05-07T04:21:45;25.43;;;12.90;;
4674;SDS011;2351;50.812;12.872;2023-05-07T04:24:16;27.57;;;11.53;;
4674;SDS011;2351;50.812;12.872;2023-05-07T04:26:49;27.90;;;13.30;;
4674;SDS011;2351;50.812;12.872;2023-05-07T04:29:22;28.70;;;13.13;;
4674;SDS011;2351;50.812;12.872;2023-05-07T04:31:54;30.53;;;13.27;;
4674;SDS011;2351;50.812;12.872;2023-05-07T04:34:26;25.03;;;11.17;;
4674;SDS011;2351;50.812;12.872;2023-05-07T04:36:58;19.07;;;10.43;;
4674;SDS011;2351;50.812;12.872;2023-05-07T04:39:30;26.83;;;10.47;;
4674;SDS011;2351;50.812;12.872;2023-05-07T04:42:06;21.90;;;11.37;;
4674;SDS011;2351;50.812;12.872;2023-05-07T04:44:38;25.20;;;11.27;;
4674;SDS011;2351;50.812;12.872;2023-05-07T04:47:10;19.13;;;9.30;;
4674;SDS011;2351;50.812;12.872;2023-05-07T04:49:42;18.23;;;9.57;;
4674;SDS011;2351;50.812;12.872;2023-05-07T04:52:14;21.93;;;9.83;;
4674;SDS011;2351;50.812;12.872;2023-05-07T04:54:46;20.03;;;8.93;;
4674;SDS011;2351;50.812;12.872;2023-05-07T04:57:19;21.20;;;9.07;;
4674;SDS011;2351;50.812;12.872;2023-05-07T04:59:51;20.70;;;9.03;;
4674;SDS011;2351;50.812;12.872;2023-05-07T05:02:23;17.93;;;8.97;;
4674;SDS011;2351;50.812;12.872;2023-05-07T05:04:55;18.67;;;9.67;;
4674;SDS011;2351;50.812;12.872;2023-05-07T05:07:26;19.30;;;8.10;;
4674;SDS011;2351;50.812;12.872;2023-05-07T05:09:58;18.27;;;8.43;;
4674;SDS011;2351;50.812;12.872;2023-05-07T05:12:31;15.30;;;8.97;;
4674;SDS011;2351;50.812;12.872;2023-05-07T05:15:03;23.63;;;10.53;;
4674;SDS011;2351;50.812;12.872;2023-05-07T05:17:36;18.40;;;9.60;;
4674;SDS011;2351;50.812;12.872;2023-05-07T05:20:07;23.90;;;11.07;;
4674;SDS011;2351;50.812;12.872;2023-05-07T05:22:41;20.50;;;10.27;;
4674;SDS011;2351;50.812;12.872;2023-05-07T05:25:12;18.37;;;9.77;;
4674;SDS011;2351;50.812;12.872;2023-05-07T05:27:46;20.97;;;10.90;;
4674;SDS011;2351;50.812;12.872;2023-05-07T05:30:17;18.40;;;10.00;;
4674;SDS011;2351;50.812;12.872;2023-05-07T05:32:49;25.63;;;11.20;;
4674;SDS011;2351;50.812;12.872;2023-05-07T05:35:21;22.63;;;11.23;;
4674;SDS011;2351;50.812;12.872;2023-05-07T05:37:52;24.93;;;10.17;;
4674;SDS011;2351;50.812;12.872;2023-05-07T05:40:24;27.07;;;12.47;;
4674;SDS011;2351;50.812;12.872;2023-05-07T05:42:57;25.40;;;11.00;;
4674;SDS011;2351;50.812;12.872;2023-05-07T05:45:29;25.50;;;10.60;;
4674;SDS011;2351;50.812;12.872;2023-05-07T05:48:01;21.60;;;10.97;;
4674;SDS011;2351;50.812;12.872;2023-05-07T05:50:32;22.20;;;10.47;;
4674;SDS011;2351;50.812;12.872;2023-05-07T05:53:05;25.60;;;12.40;;
4674;SDS011;2351;50.812;12.872;2023-05-07T05:55:37;31.50;;;13.70;;
4674;SDS011;2351;50.812;12.872;2023-05-07T05:58:10;26.00;;;12.73;;
4674;SDS011;2351;50.812;12.872;2023-05-07T06:00:42;21.40;;;11.83;;
4674;SDS011;2351;50.812;12.872;2023-05-07T06:03:15;25.20;;;12.97;;
4674;SDS011;2351;50.812;12.872;2023-05-07T06:05:47;27.10;;;14.10;;
4674;SDS011;2351;50.812;12.872;2023-05-07T06:08:19;23.13;;;12.00;;
4674;SDS011;2351;50.812;12.872;2023-05-07T06:10:50;21.97;;;12.67;;
4674;SDS011;2351;50.812;12.872;2023-05-07T06:13:23;29.60;;;13.17;;
4674;SDS011;2351;50.812;12.872;2023-05-07T06:15:56;26.53;;;13.20;;
4674;SDS011;2351;50.812;12.872;2023-05-07T06:18:27;22.97;;;11.40;;
4674;SDS011;2351;50.812;12.872;2023-05-07T06:20:59;25.53;;;11.57;;
4674;SDS011;2351;50.812;12.872;2023-05-07T06:23:31;30.60;;;11.80;;
4674;SDS011;2351;50.812;12.872;2023-05-07T06:26:03;25.40;;;11.13;;
4674;SDS011;2351;50.812;12.872;2023-05-07T06:28:36;29.23;;;9.40;;
4674;SDS011;2351;50.812;12.872;2023-05-07T06:31:11;22.70;;;11.53;;
4674;SDS011;2351;50.812;12.872;2023-05-07T06:33:44;21.60;;;10.23;;
4674;SDS011;2351;50.812;12.872;2023-05-07T06:36:16;25.93;;;10.60;;
4674;SDS011;2351;50.812;12.872;2023-05-07T06:38:47;22.90;;;10.00;;
4674;SDS011;2351;50.812;12.872;2023-05-07T06:41:19;18.07;;;9.30;;
4674;SDS011;2351;50.812;12.872;2023-05-07T06:43:53;15.10;;;8.70;;
4674;SDS011;2351;50.812;12.872;2023-05-07T06:46:24;18.60;;;9.33;;
4674;SDS011;2351;50.812;12.872;2023-05-07T06:48:56;22.67;;;8.73;;
4674;SDS011;2351;50.812;12.872;2023-05-07T06:51:28;17.50;;;8.83;;
4674;SDS011;2351;50.812;12.872;2023-05-07T06:54:00;17.83;;;8.87;;
4674;SDS011;2351;50.812;12.872;2023-05-07T06:56:32;16.80;;;9.33;;
4674;SDS011;2351;50.812;12.872;2023-05-07T06:59:06;15.93;;;6.87;;
4674;SDS011;2351;50.812;12.872;2023-05-07T07:01:37;18.97;;;8.73;;
4674;SDS011;2351;50.812;12.872;2023-05-07T07:04:09;16.70;;;8.10;;
4674;SDS011;2351;50.812;12.872;2023-05-07T07:06:41;16.93;;;7.50;;
4674;SDS011;2351;50.812;12.872;2023-05-07T07:09:13;16.70;;;9.30;;
4674;SDS011;2351;50.812;12.872;2023-05-07T07:11:45;19.40;;;9.10;;
4674;SDS011;2351;50.812;12.872;2023-05-07T07:14:18;15.73;;;8.80;;
4674;SDS011;2351;50.812;12.872;2023-05-07T07:16:50;16.17;;;9.13;;
4674;SDS011;2351;50.812;12.872;2023-05-07T07:19:22;17.20;;;10.30;;
4674;SDS011;2351;50.812;12.872;2023-05-07T07:21:53;16.63;;;9.03;;
4674;SDS011;2351;50.812;12.872;2023-05-07T07:24:25;15.43;;;8.27;;
4674;SDS011;2351;50.812;12.872;2023-05-07T07:26:57;18.70;;;9.13;;
4674;SDS011;2351;50.812;12.872;2023-05-07T07:29:30;18.50;;;8.80;;
4674;SDS011;2351;50.812;12.872;2023-05-07T07:32:01;18.70;;;8.73;;
4674;SDS011;2351;50.812;12.872;2023-05-07T07:34:33;20.23;;;8.27;;
4674;SDS011;2351;50.812;12.872;2023-05-07T07:37:05;13.73;;;7.47;;
4674;SDS011;2351;50.812;12.872;2023-05-07T07:39:37;13.73;;;8.07;;
4674;SDS011;2351;50.812;12.872;2023-05-07T07:42:08;13.57;;;7.50;;
4674;SDS011;2351;50.812;12.872;2023-05-07T07:44:42;18.63;;;7.90;;
4674;SDS011;2351;50.812;12.872;2023-05-07T07:47:13;15.80;;;7.80;;
4674;SDS011;2351;50.812;12.872;2023-05-07T07:49:45;13.20;;;7.00;;
4674;SDS011;2351;50.812;12.872;2023-05-07T07:52:17;12.53;;;7.20;;
4674;SDS011;2351;50.812;12.872;2023-05-07T07:54:49;16.87;;;7.87;;
4674;SDS011;2351;50.812;12.872;2023-05-07T07:57:21;14.93;;;7.93;;
4674;SDS011;2351;50.812;12.872;2023-05-07T07:59:54;11.57;;;7.30;;
4674;SDS011;2351;50.812;12.872;2023-05-07T08:02:26;11.80;;;6.87;;
4674;SDS011;2351;50.812;12.872;2023-05-07T08:04:58;14.50;;;8.07;;
4674;SDS011;2351;50.812;12.872;2023-05-07T08:07:29;12.30;;;7.30;;
4674;SDS011;2351;50.812;12.872;2023-05-07T08:10:01;11.70;;;6.33;;
4674;SDS011;2351;50.812;12.872;2023-05-07T08:12:33;12.47;;;7.17;;
4674;SDS011;2351;50.812;12.872;2023-05-07T08:15:07;8.80;;;5.90;;
4674;SDS011;2351;50.812;12.872;2023-05-07T08:17:39;9.90;;;6.40;;
4674;SDS011;2351;50.812;12.872;2023-05-07T08:20:11;11.77;;;5.80;;
4674;SDS011;2351;50.812;12.872;2023-05-07T08:22:43;10.87;;;5.40;;
4674;SDS011;2351;50.812;12.872;2023-05-07T08:25:15;11.43;;;6.37;;
4674;SDS011;2351;50.812;12.872;2023-05-07T08:27:46;10.60;;;4.93;;
4674;SDS011;2351;50.812;12.872;2023-05-07T08:30:19;13.80;;;6.10;;
4674;SDS011;2351;50.812;12.872;2023-05-07T08:32:51;9.13;;;5.53;;
4674;SDS011;2351;50.812;12.872;2023-05-07T08:35:23;12.03;;;5.93;;
4674;SDS011;2351;50.812;12.872;2023-05-07T08:37:55;11.43;;;5.97;;
4674;SDS011;2351;50.812;12.872;2023-05-07T08:40:27;8.37;;;4.90;;
4674;SDS011;2351;50.812;12.872;2023-05-07T08:43:00;10.70;;;6.30;;
4674;SDS011;2351;50.812;12.872;2023-05-07T08:45:34;7.53;;;4.47;;
4674;SDS011;2351;50.812;12.872;2023-05-07T08:48:09;9.00;;;5.23;;
4674;SDS011;2351;50.812;12.872;2023-05-07T08:50:45;7.70;;;5.00;;
4674;SDS011;2351;50.812;12.872;2023-05-07T08:53:17;8.10;;;4.80;;
4674;SDS011;2351;50.812;12.872;2023-05-07T08:55:51;8.13;;;4.40;;
4674;SDS011;2351;50.812;12.872;2023-05-07T08:58:23;8.40;;;5.23;;
4674;SDS011;2351;50.812;12.872;2023-05-07T09:00:56;8.67;;;3.83;;
4674;SDS011;2351;50.812;12.872;2023-05-07T09:03:30;6.93;;;4.63;;
4674;SDS011;2351;50.812;12.872;2023-05-07T09:06:02;5.43;;;4.03;;
4674;SDS011;2351;50.812;12.872;2023-05-07T09:08:34;6.80;;;3.90;;
4674;SDS011;2351;50.812;12.872;2023-05-07T09:11:06;5.60;;;3.63;;
4674;SDS011;2351;50.812;12.872;2023-05-07T09:13:40;5.17;;;3.57;;
4674;SDS011;2351;50.812;12.872;2023-05-07T09:16:13;5.93;;;4.47;;
4674;SDS011;2351;50.812;12.872;2023-05-07T09:18:46;8.20;;;4.67;;
4674;SDS011;2351;50.812;12.872;2023-05-07T09:21:18;5.23;;;3.87;;
4674;SDS011;2351;50.812;12.872;2023-05-07T09:23:50;5.70;;;3.53;;
4674;SDS011;2351;50.812;12.872;2023-05-07T09:26:23;6.37;;;3.70;;
4674;SDS011;2351;50.812;12.872;2023-05-07T09:28:55;5.57;;;3.50;;
4674;SDS011;2351;50.812;12.872;2023-05-07T09:31:28;6.47;;;4.43;;
4674;SDS011;2351;50.812;12.872;2023-05-07T09:34:00;6.77;;;4.40;;
4674;SDS011;2351;50.812;12.872;2023-05-07T09:36:32;7.67;;;4.37;;
4674;SDS011;2351;50.812;12.872;2023-05-07T09:39:04;5.57;;;4.10;;
4674;SDS011;2351;50.812;12.872;2023-05-07T09:41:42;8.97;;;4.80;;
4674;SDS011;2351;50.812;12.872;2023-05-07T09:44:15;7.07;;;5.20;;
4674;SDS011;2351;50.812;12.872;2023-05-07T09:46:51;5.50;;;4.57;;
4674;SDS011;2351;50.812;12.872;2023-05-07T09:49:26;9.77;;;5.53;;
4674;SDS011;2351;50.812;12.872;2023-05-07T09:52:01;7.87;;;5.10;;
4674;SDS011;2351;50.812;12.872;2023-05-07T09:54:36;7.23;;;4.57;;
4674;SDS011;2351;50.812;12.872;2023-05-07T09:57:09;7.27;;;4.40;;
4674;SDS011;2351;50.812;12.872;2023-05-07T09:59:42;7.87;;;4.57;;
4674;SDS011;2351;50.812;12.872;2023-05-07T10:02:16;5.80;;;4.43;;
4674;SDS011;2351;50.812;12.872;2023-05-07T10:04:50;6.70;;;5.23;;
4674;SDS011;2351;50.812;12.872;2023-05-07T10:07:22;7.10;;;4.43;;
4674;SDS011;2351;50.812;12.872;2023-05-07T10:09:54;4.37;;;3.77;;
4674;SDS011;2351;50.812;12.872;2023-05-07T10:12:26;6.70;;;4.10;;
4674;SDS011;2351;50.812;12.872;2023-05-07T10:15:00;8.13;;;4.70;;
4674;SDS011;2351;50.812;12.872;2023-05-07T10:17:33;5.63;;;4.40;;
4674;SDS011;2351;50.812;12.872;2023-05-07T10:20:07;7.47;;;4.87;;
4674;SDS011;2351;50.812;12.872;2023-05-07T10:22:41;9.43;;;4.57;;
4674;SDS011;2351;50.812;12.872;2023-05-07T10:25:16;4.77;;;3.50;;
4674;SDS011;2351;50.812;12.872;2023-05-07T10:27:50;5.87;;;4.20;;
4674;SDS011;2351;50.812;12.872;2023-05-07T10:30:33;7.57;;;4.17;;
4674;SDS011;2351;50.812;12.872;2023-05-07T10:33:13;6.93;;;4.77;;
4674;SDS011;2351;50.812;12.872;2023-05-07T10:35:48;6.97;;;4.80;;
4674;SDS011;2351;50.812;12.872;2023-05-07T10:38:20;5.80;;;4.57;;
4674;SDS011;2351;50.812;12.872;2023-05-07T10:40:52;7.20;;;4.23;;
4674;SDS011;2351;50.812;12.872;2023-05-07T10:43:24;5.40;;;4.00;;
4674;SDS011;2351;50.812;12.872;2023-05-07T10:46:15;7.40;;;4.03;;
4674;SDS011;2351;50.812;12.872;2023-05-07T10:51:43;4.40;;;3.10;;
4674;SDS011;2351;50.812;12.872;2023-05-07T10:54:20;5.70;;;4.40;;
4674;SDS011;2351;50.812;12.872;2023-05-07T10:56:57;4.20;;;3.40;;
4674;SDS011;2351;50.812;12.872;2023-05-07T11:00:04;5.40;;;3.80;;
4674;SDS011;2351;50.812;12.872;2023-05-07T11:03:13;4.80;;;3.63;;
4674;SDS011;2351;50.812;12.872;2023-05-07T11:05:46;5.47;;;3.77;;
4674;SDS011;2351;50.812;12.872;2023-05-07T11:08:19;4.90;;;4.10;;
4674;SDS011;2351;50.812;12.872;2023-05-07T11:10:51;5.73;;;4.07;;
4674;SDS011;2351;50.812;12.872;2023-05-07T11:13:40;7.53;;;5.40;;
4674;SDS011;2351;50.812;12.872;2023-05-07T11:16:16;5.13;;;3.93;;
4674;SDS011;2351;50.812;12.872;2023-05-07T11:18:49;5.87;;;4.70;;
4674;SDS011;2351;50.812;12.872;2023-05-07T11:21:33;5.77;;;4.60;;
4674;SDS011;2351;50.812;12.872;2023-05-07T11:24:07;7.00;;;4.63;;
4674;SDS011;2351;50.812;12.872;2023-05-07T11:26:44;5.90;;;3.87;;
4674;SDS011;2351;50.812;12.872;2023-05-07T11:29:17;4.87;;;3.93;;
4674;SDS011;2351;50.812;12.872;2023-05-07T11:31:50;5.00;;;3.77;;
4674;SDS011;2351;50.812;12.872;2023-05-07T11:34:22;6.17;;;3.60;;
4674;SDS011;2351;50.812;12.872;2023-05-07T11:36:56;4.77;;;3.80;;
4674;SDS011;2351;50.812;12.872;2023-05-07T11:39:30;5.53;;;3.73;;
4674;SDS011;2351;50.812;12.872;2023-05-07T11:42:03;4.10;;;3.60;;
4674;SDS011;2351;50.812;12.872;2023-05-07T11:44:41;4.87;;;3.90;;
4674;SDS011;2351;50.812;12.872;2023-05-07T11:47:16;5.90;;;4.07;;
4674;SDS011;2351;50.812;12.872;2023-05-07T11:49:49;5.67;;;3.97;;
4674;SDS011;2351;50.812;12.872;2023-05-07T11:52:24;5.87;;;4.50;;
4674;SDS011;2351;50.812;12.872;2023-05-07T11:54:56;6.57;;;4.63;;
4674;SDS011;2351;50.812;12.872;2023-05-07T11:57:29;6.60;;;4.07;;
4674;SDS011;2351;50.812;12.872;2023-05-07T12:00:04;6.37;;;4.50;;
4674;SDS011;2351;50.812;12.872;2023-05-07T12:02:37;7.20;;;4.40;;
4674;SDS011;2351;50.812;12.872;2023-05-07T12:05:08;9.47;;;4.20;;
4674;SDS011;2351;50.812;12.872;2023-05-07T12:07:42;7.27;;;4.87;;
4674;SDS011;2351;50.812;12.872;2023-05-07T12:10:13;9.67;;;4.50;;
4674;SDS011;2351;50.812;12.872;2023-05-07T12:12:46;6.50;;;4.30;;
4674;SDS011;2351;50.812;12.872;2023-05-07T12:15:18;6.00;;;4.70;;
4674;SDS011;2351;50.812;12.872;2023-05-07T12:17:53;4.83;;;4.33;;
4674;SDS011;2351;50.812;12.872;2023-05-07T12:20:25;5.40;;;4.10;;
4674;SDS011;2351;50.812;12.872;2023-05-07T12:22:59;6.30;;;4.87;;
4674;SDS011;2351;50.812;12.872;2023-05-07T12:25:30;5.60;;;4.43;;
4674;SDS011;2351;50.812;12.872;2023-05-07T12:28:02;4.30;;;3.60;;
4674;SDS011;2351;50.812;12.872;2023-05-07T12:30:36;3.90;;;3.50;;
4674;SDS011;2351;50.812;12.872;2023-05-07T12:33:08;6.67;;;4.50;;
4674;SDS011;2351;50.812;12.872;2023-05-07T12:35:41;5.80;;;4.10;;
4674;SDS011;2351;50.812;12.872;2023-05-07T12:38:15;7.10;;;4.83;;
4674;SDS011;2351;50.812;12.872;2023-05-07T12:40:48;5.57;;;4.23;;
4674;SDS011;2351;50.812;12.872;2023-05-07T12:43:24;5.50;;;4.50;;
4674;SDS011;2351;50.812;12.872;2023-05-07T12:45:57;5.60;;;4.60;;
4674;SDS011;2351;50.812;12.872;2023-05-07T12:48:38;5.83;;;4.27;;
4674;SDS011;2351;50.812;12.872;2023-05-07T12:51:16;11.93;;;4.40;;
4674;SDS011;2351;50.812;12.872;2023-05-07T13:00:34;7.03;;;4.80;;
4674;SDS011;2351;50.812;12.872;2023-05-07T13:03:07;4.87;;;4.23;;
4674;SDS011;2351;50.812;12.872;2023-05-07T13:05:38;7.70;;;5.10;;
4674;SDS011;2351;50.812;12.872;2023-05-07T13:08:10;5.90;;;4.87;;
4674;SDS011;2351;50.812;12.872;2023-05-07T13:10:42;6.33;;;4.50;;
4674;SDS011;2351;50.812;12.872;2023-05-07T13:13:13;4.97;;;4.03;;
4674;SDS011;2351;50.812;12.872;2023-05-07T13:15:47;12.97;;;4.67;;
4674;SDS011;2351;50.812;12.872;2023-05-07T13:18:18;8.07;;;4.87;;
4674;SDS011;2351;50.812;12.872;2023-05-07T13:20:50;6.00;;;4.23;;
4674;SDS011;2351;50.812;12.872;2023-05-07T13:23:22;5.70;;;4.73;;
4674;SDS011;2351;50.812;12.872;2023-05-07T13:25:55;5.77;;;4.13;;
4674;SDS011;2351;50.812;12.872;2023-05-07T13:28:26;7.63;;;4.37;;
4674;SDS011;2351;50.812;12.872;2023-05-07T13:31:00;5.30;;;4.53;;
4674;SDS011;2351;50.812;12.872;2023-05-07T13:33:31;5.30;;;4.73;;
4674;SDS011;2351;50.812;12.872;2023-05-07T13:36:03;6.07;;;4.67;;
4674;SDS011;2351;50.812;12.872;2023-05-07T13:38:35;5.30;;;4.20;;
4674;SDS011;2351;50.812;12.872;2023-05-07T13:41:07;6.30;;;4.57;;
4674;SDS011;2351;50.812;12.872;2023-05-07T13:43:39;5.03;;;4.43;;
4674;SDS011;2351;50.812;12.872;2023-05-07T13:46:12;7.13;;;5.07;;
4674;SDS011;2351;50.812;12.872;2023-05-07T13:48:44;6.90;;;4.63;;
4674;SDS011;2351;50.812;12.872;2023-05-07T13:51:15;5.53;;;4.37;;
4674;SDS011;2351;50.812;12.872;2023-05-07T13:53:48;5.17;;;3.70;;
4674;SDS011;2351;50.812;12.872;2023-05-07T13:56:20;5.60;;;4.57;;
4674;SDS011;2351;50.812;12.872;2023-05-07T13:58:53;5.47;;;3.97;;
4674;SDS011;2351;50.812;12.872;2023-05-07T14:01:26;4.90;;;4.40;;
4674;SDS011;2351;50.812;12.872;2023-05-07T14:03:58;5.73;;;3.97;;
4674;SDS011;2351;50.812;12.872;2023-05-07T14:06:29;5.33;;;4.17;;
4674;SDS011;2351;50.812;12.872;2023-05-07T14:09:01;4.40;;;4.00;;
4674;SDS011;2351;50.812;12.872;2023-05-07T14:11:34;4.90;;;4.40;;
4674;SDS011;2351;50.812;12.872;2023-05-07T14:14:05;4.00;;;3.37;;
4674;SDS011;2351;50.812;12.872;2023-05-07T14:16:38;5.33;;;3.87;;
4674;SDS011;2351;50.812;12.872;2023-05-07T14:19:10;6.03;;;4.00;;
4674;SDS011;2351;50.812;12.872;2023-05-07T14:21:42;5.07;;;4.30;;
4674;SDS011;2351;50.812;12.872;2023-05-07T14:24:14;5.47;;;3.83;;
4674;SDS011;2351;50.812;12.872;2023-05-07T14:26:46;3.83;;;3.40;;
4674;SDS011;2351;50.812;12.872;2023-05-07T14:29:17;4.07;;;3.17;;
4674;SDS011;2351;50.812;12.872;2023-05-07T14:31:51;4.90;;;4.17;;
4674;SDS011;2351;50.812;12.872;2023-05-07T14:34:23;5.00;;;3.83;;
4674;SDS011;2351;50.812;12.872;2023-05-07T14:36:54;6.43;;;4.67;;
4674;SDS011;2351;50.812;12.872;2023-05-07T14:39:26;5.90;;;3.93;;
4674;SDS011;2351;50.812;12.872;2023-05-07T14:41:58;5.87;;;4.80;;
4674;SDS011;2351;50.812;12.872;2023-05-07T14:44:30;6.63;;;4.70;;
4674;SDS011;2351;50.812;12.872;2023-05-07T14:47:04;7.67;;;4.73;;
4674;SDS011;2351;50.812;12.872;2023-05-07T14:49:36;6.20;;;4.03;;
4674;SDS011;2351;50.812;12.872;2023-05-07T14:52:07;5.20;;;4.50;;
4674;SDS011;2351;50.812;12.872;2023-05-07T14:54:40;6.47;;;4.90;;
4674;SDS011;2351;50.812;12.872;2023-05-07T14:57:13;7.27;;;5.20;;
4674;SDS011;2351;50.812;12.872;2023-05-07T14:59:46;5.00;;;4.10;;
4674;SDS011;2351;50.812;12.872;2023-05-07T15:02:19;6.67;;;4.80;;
4674;SDS011;2351;50.812;12.872;2023-05-07T15:04:51;6.63;;;4.73;;
4674;SDS011;2351;50.812;12.872;2023-05-07T15:07:22;6.20;;;4.83;;
4674;SDS011;2351;50.812;12.872;2023-05-07T15:09:54;4.83;;;4.07;;
4674;SDS011;2351;50.812;12.872;2023-05-07T15:12:26;6.17;;;4.77;;
4674;SDS011;2351;50.812;12.872;2023-05-07T15:14:58;7.70;;;4.40;;
4674;SDS011;2351;50.812;12.872;2023-05-07T15:17:31;6.50;;;4.90;;
4674;SDS011;2351;50.812;12.872;2023-05-07T15:20:03;5.43;;;4.50;;
4674;SDS011;2351;50.812;12.872;2023-05-07T15:22:35;5.10;;;4.60;;
4674;SDS011;2351;50.812;12.872;2023-05-07T15:25:08;5.83;;;4.80;;
4674;SDS011;2351;50.812;12.872;2023-05-07T15:27:39;9.07;;;5.17;;
4674;SDS011;2351;50.812;12.872;2023-05-07T15:30:12;4.90;;;4.47;;
4674;SDS011;2351;50.812;12.872;2023-05-07T15:32:45;4.67;;;4.27;;
4674;SDS011;2351;50.812;12.872;2023-05-07T15:35:17;5.60;;;4.40;;